createdAt,value
2023-01-19T00:02:00.923Z,4.45
2023-01-19T00:04:27.217Z,5.78
2023-01-19T00:06:53.539Z,3.13
2023-01-19T00:09:19.964Z,3.50
2023-01-19T00:11:46.268Z,2.35
2023-01-19T00:14:12.565Z,2.70
2023-01-19T00:16:39.141Z,2.72
2023-01-19T00:19:05.413Z,5.50
2023-01-19T00:21:31.866Z,3.78
2023-01-19T00:23:58.472Z,6.45
2023-01-19T00:26:24.706Z,1.70
2023-01-19T00:28:51.194Z,2.40
2023-01-19T00:31:21.637Z,6.03
2023-01-19T00:33:49.216Z,0.50
2023-01-19T00:36:16.216Z,1.05
2023-01-19T00:38:42.519Z,0.93
2023-01-19T00:41:08.855Z,0.45
2023-01-19T00:43:35.170Z,1.63
2023-01-19T00:46:01.522Z,2.28
2023-01-19T00:48:27.806Z,3.25
2023-01-19T00:50:54.096Z,1.35
2023-01-19T00:53:20.437Z,2.42
2023-01-19T00:55:46.763Z,4.07
2023-01-19T00:58:13.175Z,3.70
2023-01-19T01:00:39.638Z,3.85
2023-01-19T01:03:06.101Z,6.75
2023-01-19T01:05:32.653Z,6.72
2023-01-19T01:07:58.955Z,9.80
2023-01-19T01:10:26.873Z,7.47
2023-01-19T01:13:20.426Z,9.88
2023-01-19T01:15:39.640Z,10.45
2023-01-19T01:18:05.936Z,15.55
2023-01-19T01:20:34.508Z,11.32
2023-01-19T01:23:01.022Z,12.38
2023-01-19T01:25:28.464Z,12.85
2023-01-19T01:27:54.973Z,9.82
2023-01-19T01:30:21.611Z,10.07
2023-01-19T01:32:48.049Z,9.75
2023-01-19T01:35:14.933Z,6.07
2023-01-19T01:37:42.551Z,5.45
2023-01-19T01:40:10.324Z,7.20
2023-01-19T01:42:36.619Z,5.65
2023-01-19T01:45:06.076Z,4.80
2023-01-19T01:47:35.140Z,2.35
2023-01-19T01:50:04.476Z,4.53
2023-01-19T01:52:32.649Z,2.38
2023-01-19T01:54:59.835Z,4.72
2023-01-19T01:57:27.866Z,2.85
2023-01-19T01:59:55.507Z,1.30
2023-01-19T02:02:43.065Z,1.42
2023-01-19T02:05:13.292Z,0.77
2023-01-19T02:08:04.212Z,4.38
2023-01-19T02:10:49.617Z,3.05
2023-01-19T02:13:19.671Z,0.85
2023-01-19T02:15:46.714Z,2.50
2023-01-19T02:18:14.092Z,4.50
2023-01-19T02:20:42.966Z,1.13
2023-01-19T02:23:15.662Z,2.95
2023-01-19T02:25:41.938Z,3.50
2023-01-19T02:28:08.596Z,1.58
2023-01-19T02:30:35.679Z,3.97
2023-01-19T02:33:02.449Z,1.35
2023-01-19T02:35:30.053Z,3.88
2023-01-19T02:37:57.083Z,6.03
2023-01-19T02:40:24.956Z,7.57
2023-01-19T02:42:52.995Z,7.20
2023-01-19T02:45:20.599Z,6.13
2023-01-19T02:47:49.197Z,4.03
2023-01-19T02:50:32.854Z,5.25
2023-01-19T02:53:03.429Z,3.75
2023-01-19T02:55:31.261Z,10.82
2023-01-19T02:58:20.036Z,5.28
2023-01-19T03:00:57.978Z,7.30
2023-01-19T03:03:27.314Z,2.95
2023-01-19T03:05:56.756Z,3.13
2023-01-19T03:08:23.046Z,7.35
2023-01-19T03:10:54.587Z,2.67
2023-01-19T03:13:26.886Z,1.23
2023-01-19T03:15:55.868Z,0.82
2023-01-19T03:18:24.449Z,4.82
2023-01-19T03:20:53.342Z,4.35
2023-01-19T03:23:21.295Z,1.58
2023-01-19T03:25:49.099Z,5.10
2023-01-19T03:28:16.328Z,0.90
2023-01-19T03:30:46.470Z,2.90
2023-01-19T03:33:15.651Z,3.35
2023-01-19T03:35:44.806Z,3.72
2023-01-19T03:38:14.904Z,6.32
2023-01-19T03:40:41.583Z,4.80
2023-01-19T03:43:08.514Z,5.07
2023-01-19T03:45:37.303Z,4.63
2023-01-19T03:48:05.034Z,2.95
2023-01-19T03:50:31.814Z,6.78
2023-01-19T03:53:11.769Z,5.65
2023-01-19T03:55:39.680Z,4.18
2023-01-19T03:58:06.427Z,3.53
2023-01-19T04:00:32.957Z,2.95
2023-01-19T04:02:59.567Z,5.97
2023-01-19T04:05:26.104Z,3.22
2023-01-19T04:07:52.705Z,7.32
2023-01-19T04:10:19.479Z,4.65
2023-01-19T04:12:45.999Z,3.35
2023-01-19T04:15:12.542Z,2.90
2023-01-19T04:17:39.292Z,2.25
2023-01-19T04:20:06.224Z,4.70
2023-01-19T04:22:32.567Z,2.97
2023-01-19T04:24:59.211Z,8.57
2023-01-19T04:27:26.286Z,5.82
2023-01-19T04:29:53.090Z,7.50
2023-01-19T04:32:19.628Z,1.67
2023-01-19T04:34:45.888Z,3.90
2023-01-19T04:37:12.460Z,2.47
2023-01-19T04:39:38.739Z,4.15
2023-01-19T04:42:06.268Z,2.50
2023-01-19T04:44:32.581Z,7.05
2023-01-19T04:46:58.911Z,3.38
2023-01-19T04:49:25.222Z,3.25
2023-01-19T04:51:54.317Z,3.30
2023-01-19T04:54:21.359Z,2.33
2023-01-19T04:56:48.026Z,1.70
2023-01-19T04:59:14.460Z,4.15
2023-01-19T05:01:40.836Z,7.68
2023-01-19T05:04:08.390Z,12.15
2023-01-19T05:06:34.893Z,3.42
2023-01-19T05:09:01.222Z,1.80
2023-01-19T05:11:27.469Z,10.25
2023-01-19T05:13:53.758Z,4.70
2023-01-19T05:16:20.189Z,2.85
2023-01-19T05:18:46.463Z,6.75
2023-01-19T05:21:12.731Z,7.53
2023-01-19T05:23:39.004Z,10.45
2023-01-19T05:26:05.408Z,9.00
2023-01-19T05:28:32.429Z,6.93
2023-01-19T05:30:58.877Z,7.50
2023-01-19T05:33:25.296Z,9.73
2023-01-19T05:35:52.441Z,10.02
2023-01-19T05:38:29.351Z,6.75
2023-01-19T05:41:00.366Z,8.52
2023-01-19T05:43:26.744Z,13.23
2023-01-19T05:45:53.065Z,12.85
2023-01-19T05:48:19.446Z,10.13
2023-01-19T05:50:45.768Z,12.75
2023-01-19T05:53:12.123Z,7.93
2023-01-19T05:55:38.380Z,7.20
2023-01-19T05:58:04.647Z,9.40
2023-01-19T06:00:30.967Z,10.82
2023-01-19T06:02:57.266Z,13.07
2023-01-19T06:05:23.604Z,10.70
2023-01-19T06:07:49.988Z,9.88
2023-01-19T06:10:16.534Z,6.75
2023-01-19T06:12:42.891Z,7.50
2023-01-19T06:15:09.360Z,6.75
2023-01-19T06:17:36.108Z,6.35
2023-01-19T06:20:03.072Z,9.07
2023-01-19T06:22:29.386Z,11.73
2023-01-19T06:24:55.703Z,6.38
2023-01-19T06:27:22.012Z,10.63
2023-01-19T06:29:48.467Z,8.52
2023-01-19T06:32:14.839Z,9.13
2023-01-19T06:34:43.786Z,6.25
2023-01-19T06:37:14.063Z,11.38
2023-01-19T06:39:41.148Z,9.55
2023-01-19T06:42:07.719Z,3.55
2023-01-19T06:44:34.395Z,8.27
2023-01-19T06:47:15.020Z,13.50
2023-01-19T06:49:42.168Z,18.17
2023-01-19T06:52:09.319Z,11.90
2023-01-19T06:54:35.651Z,17.95
2023-01-19T06:57:02.787Z,11.98
2023-01-19T06:59:29.352Z,14.77
2023-01-19T07:01:56.797Z,9.75
2023-01-19T07:04:23.291Z,10.70
2023-01-19T07:06:49.888Z,8.45
2023-01-19T07:09:17.119Z,17.85
2023-01-19T07:11:43.497Z,11.75
2023-01-19T07:14:09.890Z,5.40
2023-01-19T07:16:36.212Z,5.50
2023-01-19T07:19:02.772Z,14.88
2023-01-19T07:21:29.471Z,10.27
2023-01-19T07:23:56.045Z,17.42
2023-01-19T07:26:24.952Z,8.20
2023-01-19T07:28:52.092Z,13.73
2023-01-19T07:31:18.551Z,15.48
2023-01-19T07:33:45.609Z,10.95
2023-01-19T07:36:12.341Z,10.32
2023-01-19T07:38:38.832Z,11.68
2023-01-19T07:41:06.663Z,11.05
2023-01-19T07:43:33.861Z,8.35
2023-01-19T07:46:00.881Z,14.25
2023-01-19T07:48:27.640Z,12.60
2023-01-19T07:50:58.787Z,17.33
2023-01-19T07:53:25.119Z,30.48
2023-01-19T07:55:54.834Z,31.58
2023-01-19T07:58:21.087Z,26.15
2023-01-19T08:00:47.391Z,12.65
2023-01-19T08:03:13.695Z,20.83
2023-01-19T08:05:40.116Z,13.10
2023-01-19T08:08:06.591Z,14.95
2023-01-19T08:10:34.052Z,11.18
2023-01-19T08:13:00.718Z,17.75
2023-01-19T08:15:27.877Z,18.75
2023-01-19T08:17:56.014Z,16.35
2023-01-19T08:20:23.291Z,17.90
2023-01-19T08:22:49.949Z,18.17
2023-01-19T08:25:16.452Z,12.18
2023-01-19T08:27:42.779Z,11.25
2023-01-19T08:30:09.520Z,31.25
2023-01-19T08:32:35.949Z,19.02
2023-01-19T08:35:02.283Z,12.63
2023-01-19T08:37:28.577Z,15.60
2023-01-19T08:39:54.942Z,15.80
2023-01-19T08:42:21.212Z,14.23
2023-01-19T08:44:57.571Z,11.57
2023-01-19T08:47:24.296Z,17.92
2023-01-19T08:49:50.614Z,17.50
2023-01-19T08:52:17.044Z,11.32
2023-01-19T08:54:43.503Z,14.60
2023-01-19T08:57:09.832Z,13.43
2023-01-19T08:59:36.869Z,11.75
2023-01-19T09:02:03.351Z,11.52
2023-01-19T09:04:29.824Z,8.18
2023-01-19T09:06:56.223Z,11.45
2023-01-19T09:09:22.551Z,8.18
2023-01-19T09:11:49.041Z,9.75
2023-01-19T09:14:15.375Z,11.93
2023-01-19T09:16:42.449Z,13.20
2023-01-19T09:19:09.290Z,8.25
2023-01-19T09:21:36.301Z,15.63
2023-01-19T09:24:02.695Z,11.45
2023-01-19T09:26:29.600Z,13.73
2023-01-19T09:28:56.197Z,17.88
2023-01-19T09:31:22.725Z,9.25
2023-01-19T09:33:49.108Z,11.43
2023-01-19T09:36:15.501Z,10.73
2023-01-19T09:38:42.550Z,8.52
2023-01-19T09:41:15.979Z,10.85
2023-01-19T09:43:47.817Z,12.65
2023-01-19T09:46:16.825Z,9.77
2023-01-19T09:48:47.608Z,12.50
2023-01-19T09:51:16.632Z,13.57
2023-01-19T09:54:01.894Z,10.45
2023-01-19T09:56:29.186Z,10.85
2023-01-19T09:58:55.590Z,7.50
2023-01-19T10:01:37.537Z,14.18
2023-01-19T10:04:24.200Z,6.38
2023-01-19T10:06:52.529Z,4.65
2023-01-19T10:09:18.857Z,5.53
2023-01-19T10:11:54.511Z,9.32
2023-01-19T10:16:53.064Z,8.40
2023-01-19T10:19:30.898Z,9.50
2023-01-19T10:21:58.463Z,16.02
2023-01-19T10:24:29.085Z,6.97
2023-01-19T10:26:56.149Z,4.20
2023-01-19T10:29:29.156Z,5.43
2023-01-19T10:32:10.196Z,7.55
2023-01-19T10:34:36.735Z,10.82
2023-01-19T10:37:17.356Z,7.30
2023-01-19T10:39:47.279Z,6.22
2023-01-19T10:42:16.111Z,4.22
2023-01-19T10:44:42.887Z,3.40
2023-01-19T10:47:15.239Z,3.28
2023-01-19T10:49:45.832Z,2.42
2023-01-19T10:52:29.550Z,11.20
2023-01-19T10:54:56.029Z,6.97
2023-01-19T10:57:28.476Z,6.05
2023-01-19T10:59:54.836Z,4.40
2023-01-19T11:02:22.684Z,13.57
2023-01-19T11:04:51.349Z,4.07
2023-01-19T11:07:20.864Z,8.38
2023-01-19T11:09:47.821Z,3.38
2023-01-19T11:12:22.060Z,3.85
2023-01-19T11:14:49.837Z,5.72
2023-01-19T11:17:20.663Z,9.43
2023-01-19T11:19:55.361Z,6.00
2023-01-19T11:22:26.944Z,3.37
2023-01-19T11:24:56.984Z,4.18
2023-01-19T11:27:23.353Z,9.02
2023-01-19T11:29:51.836Z,3.00
2023-01-19T11:32:22.387Z,6.05
2023-01-19T11:34:49.472Z,4.45
2023-01-19T11:37:15.825Z,2.58
2023-01-19T11:39:49.565Z,2.25
2023-01-19T11:42:16.719Z,7.07
2023-01-19T11:44:44.426Z,4.35
2023-01-19T11:47:13.507Z,2.33
2023-01-19T11:49:59.633Z,7.97
2023-01-19T11:54:57.822Z,6.28
2023-01-19T11:57:24.156Z,3.28
2023-01-19T11:59:53.087Z,6.18
2023-01-19T12:02:25.801Z,2.60
2023-01-19T12:04:54.381Z,2.22
2023-01-19T12:07:23.573Z,4.47
2023-01-19T12:09:53.112Z,3.75
2023-01-19T12:12:28.723Z,5.45
2023-01-19T12:15:17.434Z,2.67
2023-01-19T12:17:47.159Z,2.92
2023-01-19T12:20:16.307Z,2.25
2023-01-19T12:22:50.176Z,7.57
2023-01-19T12:25:25.151Z,7.55
2023-01-19T12:27:51.707Z,2.38
2023-01-19T12:30:25.551Z,3.10
2023-01-19T12:32:51.880Z,3.67
2023-01-19T12:35:37.116Z,3.53
2023-01-19T12:38:22.680Z,1.63
2023-01-19T12:40:49.018Z,4.15
2023-01-19T12:43:16.217Z,5.03
2023-01-19T12:45:44.451Z,3.25
2023-01-19T12:48:24.312Z,5.22
2023-01-19T12:50:50.616Z,13.18
2023-01-19T12:53:19.281Z,7.53
2023-01-19T12:55:47.321Z,5.45
2023-01-19T12:58:13.662Z,6.72
2023-01-19T13:00:42.659Z,6.07
2023-01-19T13:03:17.821Z,3.08
2023-01-19T13:05:44.505Z,7.47
2023-01-19T13:08:13.769Z,6.38
2023-01-19T13:10:52.629Z,3.50
2023-01-19T13:13:29.244Z,3.65
2023-01-19T13:15:56.384Z,10.70
2023-01-19T13:18:22.748Z,29.83
2023-01-19T13:20:51.320Z,15.77
2023-01-19T13:23:20.859Z,8.52
2023-01-19T13:25:48.808Z,3.08
2023-01-19T13:28:17.129Z,3.63
2023-01-19T13:30:52.962Z,16.65
2023-01-19T13:33:21.513Z,3.25
2023-01-19T13:35:52.627Z,3.08
2023-01-19T13:38:19.252Z,3.63
2023-01-19T13:40:46.048Z,4.32
2023-01-19T13:43:24.267Z,2.17
2023-01-19T13:45:53.340Z,3.05
2023-01-19T13:48:22.145Z,5.90
2023-01-19T13:51:02.648Z,2.85
2023-01-19T13:53:30.276Z,5.95
2023-01-19T13:56:06.838Z,4.32
2023-01-19T13:58:33.164Z,2.15
2023-01-19T14:00:59.558Z,1.15
2023-01-19T14:03:26.635Z,3.53
2023-01-19T14:05:54.137Z,4.03
2023-01-19T14:08:21.727Z,3.22
2023-01-19T14:10:54.309Z,3.03
2023-01-19T14:13:22.485Z,3.38
2023-01-19T14:15:49.998Z,6.10
2023-01-19T14:18:16.341Z,15.02
2023-01-19T14:21:02.789Z,2.63
2023-01-19T14:23:41.993Z,2.30
2023-01-19T14:26:27.261Z,1.33
2023-01-19T14:28:53.592Z,3.70
2023-01-19T14:31:21.744Z,5.28
2023-01-19T14:33:49.381Z,4.70
2023-01-19T14:36:21.825Z,3.42
2023-01-19T14:38:49.849Z,2.40
2023-01-19T14:41:42.423Z,2.70
2023-01-19T14:44:16.920Z,3.08
2023-01-19T14:46:49.603Z,7.10
2023-01-19T14:49:20.592Z,1.83
2023-01-19T14:51:47.380Z,1.52
2023-01-19T14:54:17.834Z,5.57
2023-01-19T14:56:44.132Z,1.52
2023-01-19T14:59:14.065Z,3.45
2023-01-19T15:01:40.542Z,3.65
2023-01-19T15:04:07.073Z,6.50
2023-01-19T15:06:33.534Z,4.03
2023-01-19T15:08:59.903Z,2.17
2023-01-19T15:11:46.886Z,2.58
2023-01-19T15:14:14.503Z,2.47
2023-01-19T15:16:42.118Z,3.40
2023-01-19T15:19:12.251Z,5.85
2023-01-19T15:21:42.058Z,4.38
2023-01-19T15:24:12.340Z,2.53
2023-01-19T15:26:39.555Z,3.35
2023-01-19T15:29:20.916Z,5.28
2023-01-19T15:31:47.580Z,3.03
2023-01-19T15:34:14.977Z,3.53
2023-01-19T15:36:42.637Z,1.20
2023-01-19T15:39:10.566Z,2.05
2023-01-19T15:41:37.729Z,5.70
2023-01-19T15:44:06.098Z,2.53
2023-01-19T15:46:33.699Z,4.30
2023-01-19T15:49:00.046Z,3.35
2023-01-19T15:51:26.516Z,3.72
2023-01-19T15:53:53.534Z,4.70
2023-01-19T15:56:21.797Z,3.17
2023-01-19T15:58:48.086Z,2.30
2023-01-19T16:01:19.031Z,8.60
2023-01-19T16:03:46.008Z,5.78
2023-01-19T16:06:12.866Z,6.28
2023-01-19T16:08:39.285Z,3.47
2023-01-19T16:11:05.768Z,6.60
2023-01-19T16:13:32.360Z,2.40
2023-01-19T16:16:03.098Z,2.92
2023-01-19T16:18:29.410Z,10.10
2023-01-19T16:20:55.748Z,4.45
2023-01-19T16:23:22.038Z,5.45
2023-01-19T16:26:04.880Z,2.38
2023-01-19T16:28:31.330Z,2.88
2023-01-19T16:30:57.767Z,4.57
2023-01-19T16:33:24.074Z,3.85
2023-01-19T16:35:50.468Z,5.35
2023-01-19T16:38:16.864Z,2.95
2023-01-19T16:40:43.713Z,3.55
2023-01-19T16:43:10.045Z,5.82
2023-01-19T16:45:55.044Z,3.42
2023-01-19T16:48:21.455Z,3.40
2023-01-19T16:51:04.609Z,5.18
2023-01-19T16:53:31.740Z,3.55
2023-01-19T16:55:58.153Z,3.25
2023-01-19T16:58:24.555Z,3.33
2023-01-19T17:00:51.031Z,5.80
2023-01-19T17:03:17.487Z,1.95
2023-01-19T17:05:48.299Z,2.63
2023-01-19T17:08:14.850Z,5.32
2023-01-19T17:10:43.608Z,2.63
2023-01-19T17:13:09.953Z,4.25
2023-01-19T17:15:36.345Z,8.13
2023-01-19T17:18:02.637Z,8.90
2023-01-19T17:20:29.092Z,4.70
2023-01-19T17:22:58.579Z,6.30
2023-01-19T17:25:24.919Z,6.82
2023-01-19T17:27:51.211Z,6.80
2023-01-19T17:30:17.554Z,7.20
2023-01-19T17:32:43.905Z,7.72
2023-01-19T17:35:10.619Z,9.82
2023-01-19T17:37:55.944Z,10.68
2023-01-19T17:40:22.228Z,4.45
2023-01-19T17:42:48.711Z,4.35
2023-01-19T17:45:15.322Z,5.72
2023-01-19T17:47:41.850Z,7.50
2023-01-19T17:50:08.340Z,4.53
2023-01-19T17:52:34.609Z,6.30
2023-01-19T17:55:01.162Z,4.40
2023-01-19T17:57:27.901Z,8.80
2023-01-19T17:59:54.284Z,3.55
2023-01-19T18:02:24.415Z,5.45
2023-01-19T18:04:52.008Z,4.82
2023-01-19T18:07:18.325Z,8.38
2023-01-19T18:09:44.667Z,9.70
2023-01-19T18:12:10.991Z,4.60
2023-01-19T18:14:37.739Z,7.47
2023-01-19T18:17:04.069Z,11.43
2023-01-19T18:19:30.385Z,7.68
2023-01-19T18:21:56.714Z,8.32
2023-01-19T18:24:23.081Z,5.30
2023-01-19T18:26:49.413Z,9.00
2023-01-19T18:29:16.663Z,7.97
2023-01-19T18:31:43.217Z,8.00
2023-01-19T18:34:09.506Z,8.65
2023-01-19T18:36:37.168Z,12.23
2023-01-19T18:39:04.201Z,7.30
2023-01-19T18:41:30.771Z,6.90
2023-01-19T18:43:58.240Z,6.63
2023-01-19T18:46:24.524Z,8.65
2023-01-19T18:48:50.988Z,7.43
2023-01-19T18:51:17.427Z,7.05
2023-01-19T18:53:44.470Z,6.63
2023-01-19T18:56:11.943Z,8.75
2023-01-19T18:58:38.754Z,4.07
2023-01-19T19:01:05.504Z,3.55
2023-01-19T19:03:31.876Z,9.32
2023-01-19T19:06:02.363Z,5.68
2023-01-19T19:08:28.851Z,5.38
2023-01-19T19:10:55.177Z,8.40
2023-01-19T19:13:21.854Z,5.47
2023-01-19T19:15:48.175Z,8.73
2023-01-19T19:18:16.591Z,5.65
2023-01-19T19:20:43.401Z,7.22
2023-01-19T19:23:10.700Z,6.38
2023-01-19T19:25:37.139Z,6.22
2023-01-19T19:28:03.910Z,6.28
2023-01-19T19:30:30.765Z,4.28
2023-01-19T19:32:57.210Z,6.15
2023-01-19T19:35:23.751Z,11.98
2023-01-19T19:37:51.367Z,5.25
2023-01-19T19:40:17.688Z,5.10
2023-01-19T19:42:44.024Z,2.42
2023-01-19T19:45:10.843Z,3.70
2023-01-19T19:47:37.244Z,2.90
2023-01-19T19:50:03.798Z,3.10
2023-01-19T19:52:30.104Z,1.48
2023-01-19T19:54:56.427Z,6.13
2023-01-19T19:57:22.756Z,3.80
2023-01-19T19:59:49.009Z,2.90
2023-01-19T20:02:15.757Z,2.45
2023-01-19T20:04:42.990Z,2.92
2023-01-19T20:07:09.337Z,3.88
2023-01-19T20:09:36.153Z,5.43
2023-01-19T20:12:02.535Z,3.83
2023-01-19T20:14:28.805Z,2.15
2023-01-19T20:16:55.233Z,2.33
2023-01-19T20:19:21.507Z,3.65
2023-01-19T20:21:47.846Z,3.45
2023-01-19T20:24:15.878Z,2.33
2023-01-19T20:26:44.444Z,2.97
2023-01-19T20:29:11.645Z,2.17
2023-01-19T20:31:39.378Z,3.72
2023-01-19T20:34:06.737Z,5.78
2023-01-19T20:36:33.383Z,3.40
2023-01-19T20:38:59.703Z,1.40
2023-01-19T20:41:26.927Z,2.15
2023-01-19T20:43:53.362Z,1.02
2023-01-19T20:46:19.718Z,0.80
2023-01-19T20:48:50.782Z,1.65
2023-01-19T20:51:18.731Z,1.33
2023-01-19T20:53:45.002Z,1.05
2023-01-19T20:56:12.602Z,1.02
2023-01-19T20:58:39.596Z,2.78
2023-01-19T21:01:13.215Z,1.52
2023-01-19T21:03:39.599Z,1.77
2023-01-19T21:06:06.113Z,1.30
2023-01-19T21:08:32.591Z,1.95
2023-01-19T21:10:59.040Z,2.80
2023-01-19T21:13:25.328Z,1.67
2023-01-19T21:15:51.563Z,3.00
2023-01-19T21:18:17.909Z,1.63
2023-01-19T21:20:44.824Z,1.77
2023-01-19T21:23:11.565Z,1.63
2023-01-19T21:25:38.314Z,2.65
2023-01-19T21:28:04.702Z,4.90
2023-01-19T21:30:31.029Z,1.90
2023-01-19T21:32:57.537Z,3.92
2023-01-19T21:35:23.865Z,2.67
2023-01-19T21:37:50.299Z,2.53
2023-01-19T21:40:17.143Z,3.50
2023-01-19T21:42:43.394Z,1.63
2023-01-19T21:45:09.876Z,2.50
2023-01-19T21:47:36.583Z,2.75
2023-01-19T21:50:03.341Z,3.65
2023-01-19T21:52:29.650Z,3.30
2023-01-19T21:54:55.914Z,3.85
2023-01-19T21:57:22.199Z,3.72
2023-01-19T21:59:49.219Z,5.13
2023-01-19T22:02:19.687Z,4.82
2023-01-19T22:04:53.162Z,8.60
2023-01-19T22:07:19.480Z,6.05
2023-01-19T22:09:46.001Z,5.03
2023-01-19T22:12:12.333Z,4.22
2023-01-19T22:14:38.698Z,9.25
2023-01-19T22:17:05.093Z,8.20
2023-01-19T22:19:31.360Z,5.97
2023-01-19T22:21:57.615Z,6.72
2023-01-19T22:24:23.904Z,9.30
2023-01-19T22:26:50.146Z,7.90
2023-01-19T22:29:16.443Z,7.32
2023-01-19T22:31:43.149Z,10.32
2023-01-19T22:34:10.735Z,9.93
2023-01-19T22:36:37.570Z,9.38
2023-01-19T22:39:05.812Z,10.88
2023-01-19T22:41:33.783Z,9.18
2023-01-19T22:44:01.571Z,9.70
2023-01-19T22:46:32.083Z,11.05
2023-01-19T22:48:58.761Z,10.48
2023-01-19T22:51:25.343Z,9.70
2023-01-19T22:53:51.947Z,9.57
2023-01-19T22:56:19.235Z,9.05
2023-01-19T22:58:46.272Z,10.05
2023-01-19T23:01:13.612Z,9.02
2023-01-19T23:03:40.302Z,8.15
2023-01-19T23:06:17.791Z,7.82
2023-01-19T23:08:44.178Z,8.13
2023-01-19T23:11:17.676Z,8.50
2023-01-19T23:13:44.196Z,8.68
2023-01-19T23:16:10.918Z,7.43
2023-01-19T23:18:37.182Z,7.57
2023-01-19T23:21:04.910Z,8.50
2023-01-19T23:23:31.615Z,8.60
2023-01-19T23:26:05.627Z,7.68
2023-01-19T23:28:34.001Z,8.02
2023-01-19T23:31:00.721Z,10.18
2023-01-19T23:33:27.282Z,6.18
2023-01-19T23:35:56.462Z,8.20
2023-01-19T23:38:22.859Z,6.95
2023-01-19T23:40:49.143Z,6.18
2023-01-19T23:43:16.311Z,6.28
2023-01-19T23:45:42.562Z,8.20
2023-01-19T23:48:08.922Z,7.25
2023-01-19T23:50:38.699Z,6.13
2023-01-19T23:53:04.912Z,5.38
2023-01-19T23:55:31.949Z,5.15
2023-01-19T23:57:58.189Z,6.75
